Time;durP1;ratioP1;P1;durP2;ratioP2;P2;SDS_P1;SDS_P2;PMS_P1;PMS_P2;Temp;Humidity;BMP_temperature;BMP_pressure;BME280_temperature;BME280_humidity;BME280_pressure;Samples;Min_cycle;Max_cycle;Signal;HPM_P1;HPM_P2
2022/05/06 00:00:12;;;;;;;13.85;8.38;;;15.10;69.40;;;;;;5099504;28;20071;-61
2022/05/06 00:02:38;;;;;;;9.75;8.05;;;15.10;69.60;;;;;;5096996;28;20035;-60
2022/05/06 00:05:05;;;;;;;9.40;8.32;;;15.10;70.20;;;;;;5103219;28;20099;-61
2022/05/06 00:07:31;;;;;;;11.50;8.98;;;15.10;69.50;;;;;;5100952;28;20083;-60
2022/05/06 00:09:56;;;;;;;12.65;9.30;;;15.10;69.50;;;;;;5099492;28;20052;-60
2022/05/06 00:12:23;;;;;;;11.32;8.57;;;15.10;69.50;;;;;;5096327;28;20028;-62
2022/05/06 00:14:49;;;;;;;11.35;8.68;;;15.10;69.80;;;;;;5100988;28;20027;-61
2022/05/06 00:17:14;;;;;;;13.35;8.75;;;15.10;69.60;;;;;;5093212;28;20390;-60
2022/05/06 00:19:42;;;;;;;12.50;8.63;;;15.10;69.70;;;;;;5102379;28;20051;-60
2022/05/06 00:22:09;;;;;;;10.60;8.80;;;15.10;69.70;;;;;;5100903;28;20070;-60
2022/05/06 00:24:34;;;;;;;14.38;8.82;;;15.10;69.80;;;;;;5103307;28;20084;-61
2022/05/06 00:27:00;;;;;;;13.93;9.13;;;15.10;69.80;;;;;;5101440;28;20021;-60
2022/05/06 00:29:26;;;;;;;11.25;9.07;;;15.10;70.20;;;;;;5099592;28;21322;-60
2022/05/06 00:31:52;;;;;;;11.88;9.40;;;15.10;70.10;;;;;;5098909;28;20032;-61
2022/05/06 00:34:17;;;;;;;12.32;10.15;;;15.10;69.80;;;;;;5102225;28;20020;-59
2022/05/06 00:36:44;;;;;;;15.05;9.77;;;15.00;70.10;;;;;;5102403;28;20051;-61
2022/05/06 00:39:10;;;;;;;13.13;9.43;;;15.00;70.10;;;;;;5096392;28;20035;-60
2022/05/06 00:41:36;;;;;;;11.10;9.90;;;15.00;69.80;;;;;;5096166;28;20036;-61
2022/05/06 00:44:04;;;;;;;14.27;10.20;;;15.00;70.20;;;;;;5104011;28;20027;-62
2022/05/06 00:46:32;;;;;;;12.57;9.80;;;15.00;70.20;;;;;;5094295;28;20605;-60
2022/05/06 00:48:57;;;;;;;14.02;10.68;;;15.00;70.10;;;;;;5104383;28;20131;-61
2022/05/06 00:51:24;;;;;;;15.82;10.38;;;15.00;70.10;;;;;;5096511;28;20109;-61
2022/05/06 00:53:53;;;;;;;10.85;9.68;;;15.00;70.40;;;;;;5105905;28;20101;-61
2022/05/06 00:56:19;;;;;;;16.10;10.73;;;15.00;70.20;;;;;;5089763;28;20077;-61
2022/05/06 00:58:45;;;;;;;12.85;10.32;;;14.90;70.40;;;;;;5096183;28;20639;-60
2022/05/06 01:01:11;;;;;;;16.83;9.55;;;14.90;70.30;;;;;;5107057;28;20465;-60
2022/05/06 01:03:37;;;;;;;12.90;10.30;;;14.90;70.20;;;;;;5095160;28;20076;-60
2022/05/06 01:06:07;;;;;;;14.07;10.68;;;14.90;70.30;;;;;;5102239;28;20086;-60
2022/05/06 01:08:34;;;;;;;12.88;9.80;;;14.90;70.60;;;;;;5091126;28;20026;-60
2022/05/06 01:11:00;;;;;;;14.32;10.15;;;14.90;70.50;;;;;;5096132;28;20099;-60
2022/05/06 01:13:27;;;;;;;12.73;10.70;;;14.90;70.60;;;;;;5091820;28;20055;-62
2022/05/06 01:15:56;;;;;;;15.05;10.38;;;14.90;70.60;;;;;;5099643;28;20050;-60
2022/05/06 01:18:23;;;;;;;11.40;9.82;;;14.90;70.50;;;;;;5101431;28;20033;-60
2022/05/06 01:20:52;;;;;;;15.43;10.95;;;14.90;70.40;;;;;;5105446;28;20028;-60
2022/05/06 01:23:19;;;;;;;13.63;10.60;;;14.90;70.70;;;;;;5098351;28;20040;-61
2022/05/06 01:25:46;;;;;;;14.93;10.65;;;14.90;70.30;;;;;;5095199;28;20058;-60
2022/05/06 01:28:14;;;;;;;13.52;10.15;;;14.90;70.10;;;;;;5101353;28;20058;-63
2022/05/06 01:30:48;;;;;;;13.77;10.23;;;14.90;70.20;;;;;;5097345;28;20055;-60
2022/05/06 01:33:19;;;;;;;18.20;11.05;;;15.00;70.40;;;;;;5100107;28;20059;-62
2022/05/06 01:35:52;;;;;;;15.98;10.35;;;15.00;70.40;;;;;;5096116;28;20070;-60
2022/05/06 01:38:32;;;;;;;14.75;11.20;;;15.00;70.40;;;;;;5098969;28;20023;-62
2022/05/06 01:41:08;;;;;;;15.90;10.98;;;15.00;70.50;;;;;;5101021;28;20037;-60
2022/05/06 01:43:42;;;;;;;11.02;9.93;;;15.00;70.30;;;;;;5095677;28;20020;-62
2022/05/06 01:46:09;;;;;;;16.38;10.73;;;15.00;70.10;;;;;;5090472;28;20031;-61
2022/05/06 01:48:36;;;;;;;15.38;11.15;;;15.00;69.90;;;;;;5104681;28;20065;-61
2022/05/06 01:51:02;;;;;;;15.95;11.93;;;15.00;70.10;;;;;;5098908;28;20020;-62
2022/05/06 01:53:28;;;;;;;17.45;10.43;;;15.00;70.00;;;;;;5102788;28;20051;-59
2022/05/06 01:55:54;;;;;;;14.80;11.63;;;14.90;69.80;;;;;;5099034;28;20028;-60
2022/05/06 01:58:20;;;;;;;17.02;11.13;;;14.90;69.80;;;;;;5102796;28;20028;-61
2022/05/06 02:00:46;;;;;;;15.68;11.32;;;14.90;69.60;;;;;;5100164;28;20077;-62
2022/05/06 02:05:16;;;;;;;14.55;11.02;;;14.90;69.60;;;;;;5102083;28;20028;-60
2022/05/06 02:05:57;;;;;;;18.10;11.35;;;14.90;70.50;;;;;;5100908;28;20040;-60
2022/05/06 02:08:23;;;;;;;18.08;10.68;;;14.90;69.80;;;;;;5096066;28;20028;-60
2022/05/06 02:10:49;;;;;;;14.48;10.90;;;14.90;69.80;;;;;;5100398;28;20054;-60
2022/05/06 02:13:14;;;;;;;13.95;10.55;;;15.00;69.80;;;;;;5099876;28;20028;-60
2022/05/06 02:15:41;;;;;;;12.85;11.05;;;15.00;69.80;;;;;;5105958;28;20032;-60
2022/05/06 02:18:09;;;;;;;17.40;12.10;;;15.00;69.80;;;;;;5092343;28;20051;-60
2022/05/06 02:20:35;;;;;;;18.17;11.23;;;15.00;69.80;;;;;;5106867;28;20079;-60
2022/05/06 02:23:01;;;;;;;15.88;11.18;;;15.00;69.70;;;;;;5103977;28;20056;-61
2022/05/06 02:25:26;;;;;;;16.48;11.60;;;15.00;69.70;;;;;;5107475;28;20171;-60
2022/05/06 02:27:52;;;;;;;16.33;11.63;;;15.00;69.60;;;;;;5095850;28;20016;-60
2022/05/06 02:33:14;;;;;;;13.80;10.50;;;15.00;69.30;;;;;;5099689;28;20043;-60
2022/05/06 02:35:43;;;;;;;15.77;11.38;;;15.00;69.30;;;;;;5096187;28;20033;-60
2022/05/06 02:38:11;;;;;;;17.33;11.75;;;15.00;69.30;;;;;;5095011;28;20028;-61
2022/05/06 02:40:37;;;;;;;17.33;12.35;;;15.00;69.30;;;;;;5100434;28;20031;-60
2022/05/06 02:43:05;;;;;;;15.57;11.85;;;14.90;69.10;;;;;;5090800;28;20464;-60
2022/05/06 02:45:33;;;;;;;13.98;11.95;;;14.90;69.20;;;;;;5099133;28;22628;-60
2022/05/06 02:47:59;;;;;;;19.77;10.90;;;14.90;69.30;;;;;;5097616;28;20033;-61
2022/05/06 02:50:25;;;;;;;13.93;11.18;;;14.90;69.40;;;;;;5098950;28;20043;-60
2022/05/06 02:52:51;;;;;;;17.20;11.95;;;14.90;69.40;;;;;;5099394;28;20038;-60
2022/05/06 02:55:18;;;;;;;13.70;11.48;;;14.90;69.50;;;;;;5096781;28;20027;-60
2022/05/06 02:57:43;;;;;;;14.13;11.40;;;14.80;69.40;;;;;;5096839;28;20032;-60
2022/05/06 03:00:10;;;;;;;15.10;11.60;;;14.80;69.40;;;;;;5101314;28;20027;-60
2022/05/06 03:02:35;;;;;;;16.88;13.20;;;14.80;69.50;;;;;;5107690;28;20056;-60
2022/05/06 03:05:02;;;;;;;16.25;11.88;;;14.80;69.60;;;;;;5105347;28;20039;-61
2022/05/06 03:07:27;;;;;;;18.90;12.23;;;14.80;69.50;;;;;;5098886;28;20028;-60
2022/05/06 03:09:53;;;;;;;16.45;12.00;;;14.70;69.40;;;;;;5105126;28;20091;-60
2022/05/06 03:12:20;;;;;;;16.13;11.63;;;14.70;69.40;;;;;;5105857;28;20032;-60
2022/05/06 03:14:46;;;;;;;17.98;12.52;;;14.70;69.50;;;;;;5106677;28;20024;-60
2022/05/06 03:17:12;;;;;;;21.80;12.75;;;14.70;69.50;;;;;;5104897;28;20023;-60
2022/05/06 03:19:38;;;;;;;16.65;12.57;;;14.70;69.50;;;;;;5098935;28;20029;-60
2022/05/06 03:22:06;;;;;;;14.23;10.43;;;14.70;69.40;;;;;;5106049;28;20032;-60
2022/05/06 03:24:32;;;;;;;16.58;11.90;;;14.60;69.40;;;;;;5101653;28;20032;-60
2022/05/06 03:26:57;;;;;;;15.20;11.73;;;14.60;69.40;;;;;;5099267;28;20147;-62
2022/05/06 03:29:23;;;;;;;17.45;11.10;;;14.60;69.40;;;;;;5093393;28;20101;-62
2022/05/06 03:31:49;;;;;;;15.80;11.13;;;14.60;69.30;;;;;;5102194;28;20019;-61
2022/05/06 03:34:16;;;;;;;17.95;11.93;;;14.60;69.30;;;;;;5089696;28;20146;-61
2022/05/06 03:36:42;;;;;;;16.60;11.43;;;14.60;69.30;;;;;;5105720;28;20106;-61
2022/05/06 03:39:07;;;;;;;14.93;10.93;;;14.60;69.20;;;;;;5095340;28;20047;-60
2022/05/06 03:41:33;;;;;;;14.23;11.00;;;14.60;69.20;;;;;;5097203;28;20039;-61
2022/05/06 03:43:59;;;;;;;14.45;10.65;;;14.60;69.10;;;;;;5099320;28;20352;-61
2022/05/06 03:46:24;;;;;;;14.48;11.27;;;14.50;69.00;;;;;;5108974;28;20086;-60
2022/05/06 03:48:53;;;;;;;14.82;10.88;;;14.60;69.10;;;;;;5100141;28;20075;-61
2022/05/06 03:51:22;;;;;;;15.32;11.23;;;14.50;69.80;;;;;;5097658;28;20067;-61
2022/05/06 03:53:52;;;;;;;13.85;11.02;;;14.50;69.00;;;;;;5096927;28;20024;-61
2022/05/06 03:56:24;;;;;;;17.73;11.48;;;14.50;69.00;;;;;;5102315;28;20083;-61
2022/05/06 03:58:50;;;;;;;13.55;10.55;;;14.50;69.00;;;;;;5096616;28;20020;-61
2022/05/06 04:01:18;;;;;;;13.75;11.05;;;14.50;69.00;;;;;;5106503;28;20152;-61
2022/05/06 04:03:43;;;;;;;14.00;11.00;;;14.50;69.10;;;;;;5097013;28;20029;-61
2022/05/06 04:06:13;;;;;;;14.68;10.82;;;14.40;68.90;;;;;;5110039;28;20037;-61
2022/05/06 04:08:41;;;;;;;15.55;10.82;;;14.50;68.90;;;;;;5093351;28;20021;-62
2022/05/06 04:11:10;;;;;;;15.55;10.82;;;14.50;68.80;;;;;;5095235;28;20046;-61
2022/05/06 04:13:36;;;;;;;15.73;10.30;;;14.40;68.80;;;;;;5099681;28;20043;-61
2022/05/06 04:16:02;;;;;;;13.98;10.15;;;14.40;68.80;;;;;;5086065;28;20059;-61
2022/05/06 04:18:28;;;;;;;16.52;10.00;;;14.40;68.60;;;;;;5106257;28;20028;-61
2022/05/06 04:23:39;;;;;;;13.98;9.80;;;14.40;68.60;;;;;;5096781;28;20050;-61
2022/05/06 04:26:06;;;;;;;17.95;10.23;;;14.40;68.50;;;;;;5101255;28;20114;-61
2022/05/06 04:28:33;;;;;;;14.30;9.35;;;14.40;68.50;;;;;;5097122;28;20031;-61
2022/05/06 04:30:59;;;;;;;22.52;9.73;;;14.40;68.40;;;;;;5098562;28;20024;-60
2022/05/06 04:33:26;;;;;;;12.73;9.18;;;14.40;68.40;;;;;;5095870;28;20047;-62
2022/05/06 04:35:53;;;;;;;15.93;8.63;;;14.40;68.50;;;;;;5097800;28;20534;-62
2022/05/06 04:38:19;;;;;;;18.58;9.80;;;14.40;68.40;;;;;;5100631;28;20061;-60
2022/05/06 04:40:45;;;;;;;11.68;9.00;;;14.40;68.40;;;;;;5098736;28;20049;-60
2022/05/06 04:43:11;;;;;;;12.50;9.77;;;14.40;68.30;;;;;;5098347;28;20032;-60
2022/05/06 04:45:43;;;;;;;15.48;9.32;;;14.40;68.30;;;;;;5096225;28;20024;-60
2022/05/06 04:48:11;;;;;;;14.55;9.30;;;14.40;68.10;;;;;;5096757;28;20042;-60
2022/05/06 04:50:37;;;;;;;11.77;8.75;;;14.40;68.10;;;;;;5101050;28;20089;-60
2022/05/06 04:53:07;;;;;;;12.73;8.65;;;14.40;68.00;;;;;;5094826;28;20032;-61
2022/05/06 04:55:37;;;;;;;12.82;9.02;;;14.40;67.90;;;;;;5091844;28;20486;-60
2022/05/06 04:58:04;;;;;;;13.02;8.02;;;14.40;67.80;;;;;;5097335;28;20032;-61
2022/05/06 05:00:30;;;;;;;14.85;8.48;;;14.40;67.70;;;;;;5097089;28;20036;-60
2022/05/06 05:02:57;;;;;;;14.23;9.15;;;14.40;67.60;;;;;;5095869;28;20040;-62
2022/05/06 05:05:24;;;;;;;11.95;8.23;;;14.40;67.70;;;;;;5099671;28;20017;-60
2022/05/06 05:07:50;;;;;;;13.80;8.40;;;14.40;67.60;;;;;;5099309;28;20031;-60
2022/05/06 05:10:15;;;;;;;12.35;8.35;;;14.40;67.30;;;;;;5099955;28;20047;-61
2022/05/06 05:12:41;;;;;;;19.23;8.65;;;14.50;67.40;;;;;;5101642;28;20090;-62
2022/05/06 05:15:07;;;;;;;15.18;8.23;;;14.40;67.90;;;;;;5094719;28;20050;-60
2022/05/06 05:17:33;;;;;;;12.40;7.93;;;14.40;67.10;;;;;;5096428;28;20025;-60
2022/05/06 05:19:58;;;;;;;10.75;7.63;;;14.50;67.00;;;;;;5089758;28;20033;-61
2022/05/06 05:22:24;;;;;;;13.20;7.53;;;14.50;67.00;;;;;;5096395;28;20036;-60
2022/05/06 05:24:50;;;;;;;10.68;6.85;;;14.50;66.80;;;;;;5096293;28;20028;-61
2022/05/06 05:27:16;;;;;;;13.63;8.18;;;14.50;66.70;;;;;;5096976;28;20019;-60
2022/05/06 05:29:42;;;;;;;12.73;7.38;;;14.50;66.60;;;;;;5104587;28;20519;-61
2022/05/06 05:32:09;;;;;;;10.40;7.43;;;14.50;66.60;;;;;;5104687;28;20039;-61
2022/05/06 05:34:35;;;;;;;15.68;7.35;;;14.50;66.50;;;;;;5098437;28;20032;-61
2022/05/06 05:37:01;;;;;;;9.95;7.28;;;14.60;66.40;;;;;;5098068;28;20039;-61
2022/05/06 05:39:27;;;;;;;10.27;7.35;;;14.60;66.30;;;;;;5100557;28;20031;-60
2022/05/06 05:41:52;;;;;;;8.88;7.35;;;14.60;66.10;;;;;;5094719;28;20080;-60
2022/05/06 05:49:48;;;;;;;11.32;7.03;;;14.70;66.10;;;;;;5093259;28;20066;-61
2022/05/06 05:52:14;;;;;;;11.57;6.75;;;14.70;65.90;;;;;;5094367;28;20093;-63
2022/05/06 05:54:39;;;;;;;11.15;6.85;;;14.70;65.80;;;;;;5094753;28;20032;-62
2022/05/06 05:57:06;;;;;;;9.65;6.53;;;14.80;65.80;;;;;;5096946;28;20028;-62
2022/05/06 05:59:33;;;;;;;12.20;6.95;;;14.80;65.90;;;;;;5100823;28;20054;-62
2022/05/06 06:02:00;;;;;;;12.50;6.72;;;14.80;65.50;;;;;;5101352;28;20089;-63
2022/05/06 06:04:26;;;;;;;10.38;6.45;;;14.80;65.40;;;;;;5094807;28;20036;-61
2022/05/06 06:06:51;;;;;;;8.57;6.05;;;14.80;65.40;;;;;;5093515;28;20024;-62
2022/05/06 06:09:17;;;;;;;12.27;6.43;;;14.90;65.40;;;;;;5094422;28;20115;-62
2022/05/06 06:11:43;;;;;;;7.90;6.63;;;14.90;65.30;;;;;;5102277;28;20019;-62
2022/05/06 06:14:09;;;;;;;13.80;6.63;;;14.90;65.00;;;;;;5096870;28;20054;-61
2022/05/06 06:16:35;;;;;;;12.00;6.13;;;15.00;65.10;;;;;;5095144;28;20022;-61
2022/05/06 06:19:00;;;;;;;8.40;5.53;;;15.00;64.90;;;;;;5093955;28;20040;-61
2022/05/06 06:21:27;;;;;;;13.68;5.75;;;15.10;64.90;;;;;;5087045;28;20067;-61
2022/05/06 06:23:53;;;;;;;11.25;5.95;;;15.10;64.70;;;;;;5105085;28;20016;-61
2022/05/06 06:26:19;;;;;;;9.15;5.22;;;15.20;64.70;;;;;;5096993;28;20056;-61
2022/05/06 06:28:45;;;;;;;8.18;5.80;;;15.20;64.50;;;;;;5097757;28;20026;-61
2022/05/06 06:31:10;;;;;;;8.88;5.43;;;15.20;64.30;;;;;;5096311;28;20027;-62
2022/05/06 06:33:38;;;;;;;10.27;5.90;;;15.30;64.30;;;;;;5101319;28;20016;-62
2022/05/06 06:36:07;;;;;;;8.27;5.90;;;15.30;64.00;;;;;;5105751;28;20020;-62
2022/05/06 06:38:33;;;;;;;10.35;5.60;;;15.40;63.50;;;;;;5099787;28;20016;-62
2022/05/06 06:40:59;;;;;;;12.00;5.70;;;15.40;63.40;;;;;;5091910;28;20119;-62
2022/05/06 06:43:25;;;;;;;7.97;4.93;;;15.50;63.40;;;;;;5103588;28;20046;-62
2022/05/06 06:45:51;;;;;;;8.85;5.32;;;15.50;63.40;;;;;;5097313;28;20024;-62
2022/05/06 06:48:16;;;;;;;7.38;5.20;;;15.50;63.00;;;;;;5093094;28;20623;-61
2022/05/06 06:50:42;;;;;;;8.50;5.38;;;15.60;62.90;;;;;;5093138;28;20086;-62
2022/05/06 06:53:08;;;;;;;11.07;5.22;;;15.60;62.60;;;;;;5105425;28;20035;-63
2022/05/06 06:55:34;;;;;;;11.80;4.95;;;15.70;62.60;;;;;;5098734;28;20039;-61
2022/05/06 06:58:01;;;;;;;6.07;4.85;;;15.70;62.80;;;;;;5099570;28;20105;-62
2022/05/06 07:00:26;;;;;;;6.22;4.82;;;15.70;62.60;;;;;;5106086;28;20020;-62
2022/05/06 07:02:55;;;;;;;9.57;4.72;;;15.70;62.60;;;;;;5102824;28;20036;-62
2022/05/06 07:05:22;;;;;;;6.97;4.55;;;15.80;62.50;;;;;;5098410;28;20043;-62
2022/05/06 07:13:17;;;;;;;7.03;4.47;;;16.00;62.10;;;;;;5109354;28;19915;-62
2022/05/06 07:15:43;;;;;;;7.97;4.32;;;16.10;62.10;;;;;;5101080;28;20016;-62
2022/05/06 07:18:09;;;;;;;9.30;4.55;;;16.10;61.90;;;;;;5100340;28;20040;-63
2022/05/06 07:20:35;;;;;;;5.43;4.03;;;16.30;61.60;;;;;;5110638;28;20050;-63
2022/05/06 07:23:00;;;;;;;7.25;4.50;;;16.20;61.50;;;;;;5113705;28;20113;-62
2022/05/06 07:25:26;;;;;;;11.60;5.00;;;16.20;61.10;;;;;;5094957;28;20035;-62
2022/05/06 07:27:52;;;;;;;7.57;4.63;;;16.30;61.00;;;;;;5103379;28;20028;-64
2022/05/06 07:30:17;;;;;;;7.65;4.38;;;16.30;61.00;;;;;;5097132;28;20028;-62
2022/05/06 07:32:43;;;;;;;7.65;4.53;;;16.30;60.70;;;;;;5100321;28;20024;-63
2022/05/06 07:35:09;;;;;;;10.15;4.15;;;16.30;60.70;;;;;;5099487;28;20029;-63
2022/05/06 07:37:35;;;;;;;8.27;4.20;;;16.40;60.50;;;;;;5107951;28;20024;-63
2022/05/06 07:40:05;;;;;;;11.73;4.47;;;16.40;60.10;;;;;;5099727;28;20031;-63
2022/05/06 07:42:33;;;;;;;7.95;4.13;;;16.40;60.10;;;;;;5094133;28;20047;-64
2022/05/06 07:44:59;;;;;;;12.13;4.22;;;16.50;59.90;;;;;;5089917;28;20020;-64
2022/05/06 07:47:25;;;;;;;8.05;4.03;;;16.50;60.20;;;;;;5097658;28;20120;-64
2022/05/06 07:49:51;;;;;;;8.25;4.32;;;16.60;60.10;;;;;;5092805;28;20056;-64
2022/05/06 07:52:16;;;;;;;5.97;4.00;;;16.60;59.90;;;;;;5102777;28;20509;-63
2022/05/06 07:54:42;;;;;;;8.80;4.10;;;16.70;59.90;;;;;;5106526;27;20092;-63
2022/05/06 07:57:08;;;;;;;7.25;4.20;;;16.80;59.80;;;;;;5101340;28;20110;-63
2022/05/06 07:59:33;;;;;;;11.30;4.93;;;16.90;59.60;;;;;;5101813;28;20035;-63
2022/05/06 08:04:48;;;;;;;7.25;4.47;;;17.10;59.60;;;;;;5098811;28;20038;-63
2022/05/06 08:07:15;;;;;;;6.57;4.18;;;17.20;58.80;;;;;;5091231;28;20032;-62
2022/05/06 08:09:41;;;;;;;8.52;4.00;;;17.30;58.80;;;;;;5099937;28;20071;-63
2022/05/06 08:12:08;;;;;;;6.00;3.90;;;17.40;58.60;;;;;;5101150;28;20039;-63
2022/05/06 08:14:33;;;;;;;9.30;3.97;;;17.40;58.30;;;;;;5108188;28;20836;-62
2022/05/06 08:17:00;;;;;;;6.10;3.78;;;17.50;58.10;;;;;;5097578;28;20034;-63
2022/05/06 08:19:26;;;;;;;6.55;3.45;;;17.50;58.00;;;;;;5091239;28;20059;-62
2022/05/06 08:21:52;;;;;;;7.82;3.92;;;17.50;58.30;;;;;;5095741;28;20063;-62
2022/05/06 08:24:21;;;;;;;5.82;3.80;;;17.60;58.10;;;;;;5091306;28;20547;-63
2022/05/06 08:26:47;;;;;;;6.30;4.13;;;17.70;57.70;;;;;;5104053;28;20017;-64
2022/05/06 08:29:13;;;;;;;6.88;3.92;;;17.70;57.80;;;;;;5096252;28;20021;-63
2022/05/06 08:31:39;;;;;;;6.70;3.95;;;17.80;58.00;;;;;;5100825;28;20085;-63
2022/05/06 08:34:10;;;;;;;5.82;3.63;;;17.90;58.00;;;;;;5090300;28;20035;-60
2022/05/06 08:36:37;;;;;;;6.45;4.03;;;18.00;57.80;;;;;;5087980;28;20035;-60
2022/05/06 08:39:04;;;;;;;6.65;4.10;;;18.10;57.30;;;;;;5089238;28;20094;-63
2022/05/06 08:41:30;;;;;;;4.95;3.92;;;18.20;57.40;;;;;;5101439;28;20151;-63
2022/05/06 08:43:57;;;;;;;8.88;3.97;;;18.30;56.80;;;;;;5100181;28;20035;-63
2022/05/06 08:51:56;;;;;;;6.78;3.85;;;18.50;55.70;;;;;;5101443;28;20058;-64
2022/05/06 08:54:22;;;;;;;5.03;3.45;;;18.50;56.20;;;;;;5098811;28;20028;-64
2022/05/06 08:56:49;;;;;;;6.40;3.92;;;18.60;56.50;;;;;;5100847;28;20054;-63
2022/05/06 08:59:15;;;;;;;4.85;3.47;;;18.60;56.60;;;;;;5096297;28;20052;-63
2022/05/06 09:01:41;;;;;;;8.10;3.33;;;18.70;56.30;;;;;;5104664;28;20032;-64
2022/05/06 09:04:07;;;;;;;8.23;3.85;;;18.80;56.40;;;;;;5094470;28;20165;-63
2022/05/06 09:06:33;;;;;;;7.93;3.67;;;18.90;56.20;;;;;;5103356;28;20028;-63
2022/05/06 09:09:00;;;;;;;5.30;3.90;;;19.00;56.10;;;;;;5105198;28;20020;-64
2022/05/06 09:17:21;;;;;;;4.47;3.20;;;19.20;54.40;;;;;;5091490;28;20058;-63
2022/05/06 09:19:47;;;;;;;6.90;3.60;;;19.30;53.60;;;;;;5098682;28;20035;-64
2022/05/06 09:22:14;;;;;;;5.57;3.70;;;19.30;54.80;;;;;;5104850;28;20101;-63
2022/05/06 09:24:47;;;;;;;5.15;3.70;;;19.40;54.60;;;;;;5101637;28;20591;-65
2022/05/06 09:27:17;;;;;;;7.07;3.70;;;19.40;54.50;;;;;;5105065;28;20027;-63
2022/05/06 09:29:46;;;;;;;9.43;3.72;;;19.40;54.70;;;;;;5104230;28;20343;-63
2022/05/06 09:32:22;;;;;;;6.25;4.30;;;19.50;54.00;;;;;;5094877;28;20103;-63
2022/05/06 09:34:59;;;;;;;7.07;4.00;;;19.50;53.70;;;;;;5096128;28;20069;-63
2022/05/06 09:37:38;;;;;;;6.45;3.88;;;19.50;54.50;;;;;;5094348;28;20025;-63
2022/05/06 09:40:15;;;;;;;8.88;4.10;;;19.60;54.20;;;;;;5092571;28;20033;-63
2022/05/06 09:42:59;;;;;;;8.05;3.90;;;19.60;51.50;;;;;;5098362;28;20077;-62
2022/05/06 09:45:38;;;;;;;4.07;3.15;;;19.70;53.40;;;;;;5093329;28;20024;-63
2022/05/06 09:48:04;;;;;;;6.63;3.40;;;19.70;53.20;;;;;;5096160;28;20071;-63
2022/05/06 09:50:36;;;;;;;7.13;3.83;;;19.70;53.60;;;;;;5091675;28;20075;-62
2022/05/06 09:53:04;;;;;;;4.88;3.10;;;19.70;53.00;;;;;;5091424;28;20072;-63
2022/05/06 09:55:30;;;;;;;7.65;3.80;;;19.70;53.10;;;;;;5101588;28;20023;-63
2022/05/06 09:57:57;;;;;;;7.03;3.42;;;19.70;52.20;;;;;;5098654;28;20028;-62
2022/05/06 10:00:23;;;;;;;5.20;3.33;;;19.70;52.90;;;;;;5105405;28;20839;-64
2022/05/06 10:02:49;;;;;;;7.05;3.38;;;19.70;53.20;;;;;;5095621;28;20052;-63
2022/05/06 10:05:14;;;;;;;7.18;3.20;;;19.70;53.30;;;;;;5095940;28;20142;-62
2022/05/06 10:07:43;;;;;;;5.82;3.25;;;19.70;52.50;;;;;;5099139;28;20047;-63
2022/05/06 10:10:15;;;;;;;6.20;3.53;;;19.70;52.70;;;;;;5096518;28;20025;-63
2022/05/06 10:12:45;;;;;;;9.43;3.70;;;19.70;52.40;;;;;;5102760;28;20080;-62
2022/05/06 10:15:13;;;;;;;6.88;3.58;;;19.70;52.50;;;;;;5104403;28;20024;-63
2022/05/06 10:17:59;;;;;;;9.38;3.63;;;19.80;53.10;;;;;;5101325;28;20031;-63
2022/05/06 10:20:37;;;;;;;6.22;3.83;;;19.80;51.20;;;;;;5101818;28;20087;-63
2022/05/06 10:23:07;;;;;;;11.55;3.55;;;19.80;51.70;;;;;;5098424;28;20089;-63
2022/05/06 10:25:45;;;;;;;5.30;3.70;;;19.80;51.80;;;;;;5099834;28;20094;-64
2022/05/06 10:34:17;;;;;;;6.63;3.67;;;19.70;51.30;;;;;;5100399;28;20047;-63
2022/05/06 10:36:54;;;;;;;7.80;3.60;;;19.60;51.10;;;;;;5102842;28;20028;-63
2022/05/06 10:39:39;;;;;;;4.80;3.65;;;19.50;51.20;;;;;;5096660;28;20031;-62
2022/05/06 10:42:12;;;;;;;5.75;3.70;;;19.50;51.80;;;;;;5102745;28;20134;-63
2022/05/06 10:44:39;;;;;;;8.02;3.58;;;19.50;51.70;;;;;;5104856;28;20032;-63
2022/05/06 10:47:19;;;;;;;6.72;3.75;;;19.50;52.20;;;;;;5098204;28;20081;-63
2022/05/06 10:49:52;;;;;;;4.15;3.20;;;19.40;51.60;;;;;;5094287;28;20570;-63
2022/05/06 10:52:28;;;;;;;8.00;4.25;;;19.40;52.50;;;;;;5104759;28;20477;-63
2022/05/06 10:54:55;;;;;;;7.70;4.05;;;19.40;52.50;;;;;;5100299;28;20024;-63
2022/05/06 10:57:25;;;;;;;6.53;3.42;;;19.40;53.10;;;;;;5104561;28;20020;-63
2022/05/06 10:59:58;;;;;;;6.95;3.58;;;19.40;53.20;;;;;;5103204;28;20024;-63
2022/05/06 11:02:29;;;;;;;8.13;3.90;;;19.50;53.40;;;;;;5103207;28;20036;-63
2022/05/06 11:05:00;;;;;;;8.07;3.80;;;19.50;52.40;;;;;;5091995;28;20031;-61
2022/05/06 11:07:27;;;;;;;5.55;3.33;;;19.60;52.70;;;;;;5106848;28;20026;-63
2022/05/06 11:09:52;;;;;;;8.45;3.85;;;19.70;53.00;;;;;;5106939;28;20020;-64
2022/05/06 11:12:40;;;;;;;6.72;3.60;;;19.70;52.70;;;;;;5096086;28;20024;-63
2022/05/06 11:15:08;;;;;;;5.93;3.40;;;19.80;52.30;;;;;;5094240;28;20036;-63
2022/05/06 11:17:34;;;;;;;7.38;3.33;;;19.80;52.80;;;;;;5104425;28;20086;-62
2022/05/06 11:20:01;;;;;;;6.55;3.90;;;19.80;52.30;;;;;;5095027;28;20024;-63
2022/05/06 11:22:27;;;;;;;7.00;3.88;;;19.90;52.10;;;;;;5099917;28;20048;-63
2022/05/06 11:24:56;;;;;;;5.55;3.60;;;19.90;52.40;;;;;;5099188;28;20095;-63
2022/05/06 11:27:23;;;;;;;8.05;3.28;;;19.90;52.20;;;;;;5103572;28;20025;-63
2022/05/06 11:29:56;;;;;;;6.63;3.72;;;20.00;52.50;;;;;;5101589;28;20024;-62
2022/05/06 11:32:29;;;;;;;9.00;3.78;;;20.00;52.00;;;;;;5108717;28;21107;-63
2022/05/06 11:34:58;;;;;;;8.05;4.28;;;20.00;51.90;;;;;;5097060;28;20024;-62
2022/05/06 11:37:29;;;;;;;5.53;3.80;;;19.90;51.90;;;;;;5091722;28;20020;-63
2022/05/06 11:42:40;;;;;;;4.60;3.78;;;19.90;52.50;;;;;;5111435;28;20125;-63
2022/05/06 11:47:52;;;;;;;7.53;4.50;;;19.80;52.10;;;;;;5105507;28;20039;-63
2022/05/06 11:50:18;;;;;;;5.43;4.15;;;19.80;52.50;;;;;;5096183;28;20094;-63
2022/05/06 11:52:46;;;;;;;5.47;3.97;;;19.80;52.70;;;;;;5106883;28;20024;-63
2022/05/06 11:55:14;;;;;;;7.90;4.22;;;19.70;52.60;;;;;;5106628;28;20076;-63
2022/05/06 11:57:41;;;;;;;6.68;3.90;;;19.70;53.00;;;;;;5098400;28;20024;-63
2022/05/06 12:00:08;;;;;;;19.48;11.90;;;19.70;52.90;;;;;;5106037;28;20088;-64
2022/05/06 12:02:34;;;;;;;11.27;6.07;;;19.70;53.20;;;;;;5101991;28;20043;-63
2022/05/06 12:05:00;;;;;;;15.93;10.88;;;19.70;53.10;;;;;;5092506;28;20028;-63
2022/05/06 12:07:46;;;;;;;11.88;6.38;;;19.70;53.20;;;;;;5094613;28;20028;-63
2022/05/06 12:10:26;;;;;;;13.60;5.20;;;19.70;52.50;;;;;;5100927;28;20539;-63
2022/05/06 12:12:56;;;;;;;7.47;5.07;;;19.70;52.60;;;;;;5091324;28;20027;-62
2022/05/06 12:15:42;;;;;;;6.82;4.43;;;19.80;52.60;;;;;;5097906;28;20032;-63
2022/05/06 12:18:10;;;;;;;8.52;4.97;;;19.80;52.50;;;;;;5100517;28;20070;-62
2022/05/06 12:20:38;;;;;;;7.07;4.45;;;19.70;53.00;;;;;;5104607;28;20075;-63
2022/05/06 12:23:06;;;;;;;8.13;5.10;;;19.70;53.00;;;;;;5096190;28;20070;-62
2022/05/06 12:25:35;;;;;;;8.15;5.35;;;19.80;53.20;;;;;;5101733;28;20098;-62
2022/05/06 12:28:06;;;;;;;8.02;5.72;;;19.80;52.90;;;;;;5101316;28;20031;-63
2022/05/06 12:30:32;;;;;;;9.48;5.55;;;19.80;52.90;;;;;;5112315;28;20068;-63
2022/05/06 12:33:12;;;;;;;9.52;5.55;;;19.80;53.10;;;;;;5102163;28;20032;-63
2022/05/06 12:36:06;;;;;;;8.13;5.38;;;19.80;52.80;;;;;;5101005;28;20020;-62
2022/05/06 12:38:40;;;;;;;7.22;4.78;;;19.80;51.90;;;;;;5104009;28;20044;-62
2022/05/06 12:41:25;;;;;;;7.90;5.20;;;19.80;52.70;;;;;;5099734;28;20056;-64
2022/05/06 12:43:51;;;;;;;;;;;19.80;52.30;;;;;;5100271;28;20024;-63
2022/05/06 12:46:44;;;;;;;8.48;5.20;;;19.90;53.10;;;;;;5088657;28;19919;-64
2022/05/06 12:51:54;;;;;;;11.90;5.97;;;19.90;52.00;;;;;;5088421;28;20091;-63
2022/05/06 12:54:19;;;;;;;9.55;5.65;;;19.90;52.60;;;;;;5099770;28;20035;-63
2022/05/06 12:56:45;;;;;;;11.10;5.25;;;19.90;52.80;;;;;;5098912;28;20024;-64
2022/05/06 12:59:11;;;;;;;13.02;4.85;;;19.80;52.90;;;;;;5104512;28;20024;-63
2022/05/06 13:01:38;;;;;;;11.75;5.00;;;19.90;53.00;;;;;;5100798;28;20095;-64
2022/05/06 13:04:04;;;;;;;8.43;4.55;;;19.90;52.70;;;;;;5089245;28;20516;-63
2022/05/06 13:06:31;;;;;;;6.40;5.00;;;20.00;52.60;;;;;;5097055;28;20023;-62
2022/05/06 13:08:56;;;;;;;8.63;5.28;;;20.00;52.90;;;;;;5101512;28;20033;-63
2022/05/06 13:11:22;;;;;;;10.07;5.50;;;20.00;52.80;;;;;;5093704;28;20482;-62
2022/05/06 13:13:47;;;;;;;10.13;4.93;;;20.00;52.30;;;;;;5094802;28;20043;-63
2022/05/06 13:16:13;;;;;;;14.82;5.47;;;20.00;52.50;;;;;;5103225;28;20036;-62
2022/05/06 13:18:42;;;;;;;6.32;4.93;;;20.00;52.60;;;;;;5088275;28;20057;-63
2022/05/06 13:21:08;;;;;;;11.50;5.30;;;20.00;52.10;;;;;;5099439;28;20104;-63
2022/05/06 13:23:33;;;;;;;8.48;5.03;;;20.00;52.00;;;;;;5095714;28;20477;-63
2022/05/06 13:26:01;;;;;;;9.55;4.85;;;19.90;52.40;;;;;;5101591;28;20039;-62